Time;durP1;ratioP1;P1;durP2;ratioP2;P2;SDS_P1;SDS_P2;PMS_P1;PMS_P2;Temp;Humidity;BMP_temperature;BMP_pressure;BME280_temperature;BME280_humidity;BME280_pressure;Samples;Min_cycle;Max_cycle;Signal;HPM_P1;HPM_P2
2023/10/10 00:00:05;;;;;;;6.00;2.13;;;13.90;95.20;;;;;;5015569;28;20410;-48
2023/10/10 00:02:39;;;;;;;5.93;1.35;;;13.90;95.20;;;;;;5021353;28;20034;-47
2023/10/10 00:05:08;;;;;;;8.15;1.73;;;13.90;95.20;;;;;;5015647;28;20041;-51
2023/10/10 00:07:35;;;;;;;3.85;1.80;;;13.90;95.20;;;;;;5012831;28;20104;-49
2023/10/10 00:10:11;;;;;;;7.18;2.38;;;13.90;95.30;;;;;;5006999;28;20035;-49
2023/10/10 00:12:40;;;;;;;5.55;1.58;;;13.90;95.30;;;;;;5023549;28;20053;-47
2023/10/10 00:15:22;;;;;;;2.78;1.30;;;13.90;95.30;;;;;;5032750;28;20033;-48
2023/10/10 00:18:02;;;;;;;4.90;1.50;;;13.90;95.30;;;;;;5034525;28;20101;-47
2023/10/10 00:20:35;;;;;;;6.43;1.73;;;13.90;95.30;;;;;;5033112;28;20025;-49
2023/10/10 00:23:17;;;;;;;7.30;2.10;;;13.90;95.30;;;;;;5031847;28;20041;-48
2023/10/10 00:25:45;;;;;;;6.25;2.22;;;13.80;95.20;;;;;;5025537;28;20084;-48
2023/10/10 00:28:20;;;;;;;7.38;2.10;;;13.80;95.20;;;;;;5034023;28;20049;-48
2023/10/10 00:30:53;;;;;;;8.63;2.47;;;13.80;95.30;;;;;;5028998;28;20156;-49
2023/10/10 00:33:20;;;;;;;5.57;2.10;;;13.80;95.20;;;;;;5015580;28;20044;-49
2023/10/10 00:35:47;;;;;;;6.03;1.90;;;13.80;95.10;;;;;;5031125;28;20441;-48
2023/10/10 00:38:24;;;;;;;7.43;2.55;;;13.70;95.00;;;;;;5027932;28;20041;-48
2023/10/10 00:41:10;;;;;;;12.93;5.55;;;13.70;95.00;;;;;;5015040;28;20025;-47
2023/10/10 00:43:39;;;;;;;27.40;16.02;;;13.60;95.00;;;;;;5020228;28;20041;-47
2023/10/10 00:46:04;;;;;;;27.33;17.90;;;13.60;95.00;;;;;;5031753;28;20052;-48
2023/10/10 00:48:33;;;;;;;25.33;16.35;;;13.50;94.90;;;;;;5033799;28;20370;-48
2023/10/10 00:51:20;;;;;;;19.73;11.47;;;13.50;94.90;;;;;;5037763;28;20037;-51
2023/10/10 00:54:09;;;;;;;12.70;7.50;;;13.40;94.90;;;;;;5023405;28;20471;-50
2023/10/10 00:56:36;;;;;;;11.05;5.68;;;13.40;94.90;;;;;;5034603;28;20451;-48
2023/10/10 00:59:06;;;;;;;9.43;4.68;;;13.40;94.90;;;;;;5034383;28;20465;-49
2023/10/10 01:01:33;;;;;;;6.97;3.30;;;13.40;94.90;;;;;;5032515;28;20567;-47
2023/10/10 01:04:03;;;;;;;6.03;2.25;;;13.40;94.90;;;;;;5034676;28;20029;-48
2023/10/10 01:06:31;;;;;;;5.88;2.08;;;13.40;94.90;;;;;;5023221;28;20041;-49
2023/10/10 01:09:33;;;;;;;5.07;1.52;;;13.40;94.90;;;;;;5027589;28;20035;-48
2023/10/10 01:11:58;;;;;;;4.32;1.85;;;13.30;94.90;;;;;;5012224;28;20459;-47
2023/10/10 01:14:26;;;;;;;4.07;1.63;;;13.30;94.90;;;;;;5014500;28;20474;-47
2023/10/10 01:16:57;;;;;;;6.28;1.80;;;13.30;94.90;;;;;;5014621;28;20034;-48
2023/10/10 01:19:29;;;;;;;8.88;2.13;;;13.20;94.90;;;;;;5028334;28;20029;-48
2023/10/10 01:22:03;;;;;;;2.97;1.38;;;13.20;94.90;;;;;;5034402;28;20346;-47
2023/10/10 01:24:31;;;;;;;5.72;1.95;;;13.30;95.00;;;;;;5028961;28;20095;-48
2023/10/10 01:27:13;;;;;;;9.63;2.50;;;13.20;95.00;;;;;;4999746;28;20044;-47
2023/10/10 01:29:49;;;;;;;4.22;1.58;;;13.30;95.00;;;;;;5032644;28;20029;-48
2023/10/10 01:32:17;;;;;;;4.80;1.40;;;13.30;95.00;;;;;;5028420;28;20068;-48
2023/10/10 01:34:46;;;;;;;4.60;1.77;;;13.20;95.00;;;;;;5007981;28;20164;-47
2023/10/10 01:37:14;;;;;;;8.60;1.80;;;13.20;95.00;;;;;;4997012;28;20026;-47
2023/10/10 01:40:16;;;;;;;4.60;1.30;;;13.20;95.00;;;;;;5019983;28;20393;-47
2023/10/10 01:42:54;;;;;;;6.20;1.73;;;13.20;95.00;;;;;;5033805;28;20087;-47
2023/10/10 01:45:27;;;;;;;5.25;1.42;;;13.20;94.90;;;;;;5033453;28;20033;-47
2023/10/10 01:48:14;;;;;;;5.95;1.60;;;13.10;94.90;;;;;;5033120;28;20033;-49
2023/10/10 01:50:42;;;;;;;4.28;1.27;;;13.10;94.90;;;;;;5033188;28;20387;-47
2023/10/10 01:53:10;;;;;;;2.50;1.55;;;13.10;94.90;;;;;;5033004;28;20451;-47
2023/10/10 01:55:37;;;;;;;2.95;1.58;;;13.10;95.00;;;;;;5022004;28;20040;-47
2023/10/10 01:58:12;;;;;;;6.88;2.00;;;13.10;95.00;;;;;;5013816;28;20022;-47
2023/10/10 02:00:46;;;;;;;3.80;1.10;;;13.10;95.00;;;;;;5028009;28;20033;-47
2023/10/10 02:03:17;;;;;;;4.60;1.50;;;13.10;95.10;;;;;;5028343;28;20013;-47
2023/10/10 02:05:55;;;;;;;5.57;2.17;;;13.10;95.10;;;;;;5013396;28;20033;-47
2023/10/10 02:08:31;;;;;;;4.93;1.90;;;13.20;95.10;;;;;;5013553;28;20041;-48
2023/10/10 02:11:02;;;;;;;4.25;1.33;;;13.20;95.10;;;;;;5013963;28;20501;-47
2023/10/10 02:13:33;;;;;;;5.03;1.67;;;13.20;95.20;;;;;;5031896;28;20091;-47
2023/10/10 02:16:00;;;;;;;3.28;1.63;;;13.30;95.20;;;;;;5032953;28;20029;-48
2023/10/10 02:21:16;;;;;;;5.88;1.77;;;13.30;95.30;;;;;;4983053;28;20125;-47
2023/10/10 02:23:53;;;;;;;4.47;1.70;;;13.40;95.30;;;;;;5033051;28;20037;-48
2023/10/10 02:26:35;;;;;;;4.90;2.13;;;13.40;95.40;;;;;;5014714;28;20325;-47
2023/10/10 02:29:33;;;;;;;3.88;1.85;;;13.40;95.40;;;;;;5013438;28;20034;-48
2023/10/10 02:32:19;;;;;;;4.10;1.90;;;13.40;95.50;;;;;;5010646;28;20451;-47
2023/10/10 02:37:54;;;;;;;7.57;2.05;;;13.50;95.60;;;;;;5030564;28;20151;-50
2023/10/10 02:40:19;;;;;;;5.82;1.75;;;13.60;95.60;;;;;;5030091;28;20438;-47
2023/10/10 02:43:16;;;;;;;5.63;2.00;;;13.70;95.70;;;;;;5031505;28;20036;-48
2023/10/10 02:45:44;;;;;;;4.90;2.25;;;13.70;95.70;;;;;;5028864;28;20102;-47
2023/10/10 02:48:20;;;;;;;6.22;2.63;;;13.80;95.80;;;;;;5029613;28;20037;-47
2023/10/10 02:50:51;;;;;;;5.50;2.20;;;13.80;95.80;;;;;;5019999;28;20030;-47
2023/10/10 02:53:32;;;;;;;6.20;2.58;;;13.90;95.90;;;;;;5013153;28;20371;-47
2023/10/10 02:56:01;;;;;;;8.73;2.70;;;13.90;95.90;;;;;;5029219;28;20029;-47
2023/10/10 02:58:37;;;;;;;8.48;3.35;;;13.90;95.90;;;;;;5022219;28;20021;-50
2023/10/10 03:01:18;;;;;;;8.63;3.08;;;14.00;95.90;;;;;;5031097;28;20048;-47
2023/10/10 03:03:46;;;;;;;8.48;2.75;;;14.00;95.90;;;;;;5029135;28;20467;-47
2023/10/10 03:06:28;;;;;;;9.02;3.00;;;14.00;95.90;;;;;;5031548;28;20116;-47
2023/10/10 03:09:12;;;;;;;5.95;2.53;;;14.00;96.00;;;;;;5032338;28;20096;-47
2023/10/10 03:11:53;;;;;;;6.50;3.17;;;14.10;96.00;;;;;;5026237;28;20080;-47
2023/10/10 03:14:27;;;;;;;4.50;2.35;;;14.10;96.00;;;;;;5031503;28;20045;-47
2023/10/10 03:17:31;;;;;;;8.68;4.20;;;14.10;96.00;;;;;;5012848;28;20026;-47
2023/10/10 03:20:12;;;;;;;5.80;2.78;;;14.10;96.00;;;;;;5018771;28;20352;-49
2023/10/10 03:25:28;;;;;;;10.00;3.65;;;14.10;96.00;;;;;;5024327;28;20037;-47
2023/10/10 03:27:55;;;;;;;5.72;2.90;;;14.10;96.10;;;;;;5025858;28;20477;-48
2023/10/10 03:31:11;;;;;;;8.00;2.60;;;14.10;96.00;;;;;;5032089;28;20116;-47
2023/10/10 03:33:16;;;;;;;9.23;3.70;;;14.10;96.10;;;;;;5014673;28;20080;-47
2023/10/10 03:35:59;;;;;;;6.15;3.60;;;14.10;96.10;;;;;;5032309;28;20626;-48
2023/10/10 05:23:47;;;;;;;19.77;16.27;;;14.40;96.70;;;;;;5031504;28;20027;-49
2023/10/10 05:26:18;;;;;;;18.13;14.68;;;14.30;96.60;;;;;;5033951;28;20363;-47
2023/10/10 05:28:48;;;;;;;21.10;15.80;;;14.40;96.70;;;;;;5032272;28;20025;-48
2023/10/10 05:31:21;;;;;;;24.92;16.17;;;14.30;96.70;;;;;;5033724;28;20060;-47
2023/10/10 05:33:47;;;;;;;18.98;16.35;;;14.30;96.60;;;;;;5033675;28;20453;-49
2023/10/10 05:36:18;;;;;;;21.42;15.82;;;14.30;96.70;;;;;;5016238;28;20041;-50
2023/10/10 05:38:48;;;;;;;20.23;15.23;;;14.30;96.70;;;;;;5032122;28;20025;-49
2023/10/10 05:41:19;;;;;;;23.23;15.07;;;14.30;96.70;;;;;;5033841;28;20078;-47
2023/10/10 05:43:49;;;;;;;22.35;15.57;;;14.30;96.70;;;;;;5033606;28;20009;-49
2023/10/10 05:46:15;;;;;;;23.08;16.08;;;14.30;96.70;;;;;;5031821;28;20117;-48
2023/10/10 05:48:42;;;;;;;18.42;14.55;;;14.30;96.70;;;;;;5033095;28;20332;-48
2023/10/10 05:51:13;;;;;;;20.67;14.20;;;14.30;96.70;;;;;;5031991;28;20112;-50
2023/10/10 05:53:40;;;;;;;17.45;14.95;;;14.30;96.70;;;;;;5032798;28;20074;-49
2023/10/10 05:56:17;;;;;;;20.73;14.30;;;14.30;96.70;;;;;;5033159;28;20036;-52
2023/10/10 05:58:54;;;;;;;19.70;14.65;;;14.30;96.70;;;;;;5032498;28;20041;-51
2023/10/10 06:01:23;;;;;;;21.58;14.45;;;14.30;96.60;;;;;;5033699;28;20431;-51
2023/10/10 06:03:57;;;;;;;21.33;13.40;;;14.30;96.60;;;;;;5033696;28;20025;-51
2023/10/10 06:06:27;;;;;;;16.35;12.82;;;14.30;96.70;;;;;;5031835;28;20613;-49
2023/10/10 06:09:04;;;;;;;16.38;12.90;;;14.30;96.70;;;;;;5033034;28;20041;-51
2023/10/10 06:11:39;;;;;;;18.92;12.30;;;14.30;96.70;;;;;;5033260;28;20069;-49
2023/10/10 06:14:06;;;;;;;20.15;13.70;;;14.30;96.70;;;;;;5032749;28;20057;-49
2023/10/10 06:16:33;;;;;;;19.23;12.77;;;14.30;96.70;;;;;;5031315;28;20033;-50
2023/10/10 06:19:01;;;;;;;15.30;12.05;;;14.40;96.70;;;;;;5028175;28;20699;-52
2023/10/10 06:21:30;;;;;;;14.77;11.55;;;14.40;96.70;;;;;;5030908;28;20032;-49
2023/10/10 06:23:56;;;;;;;15.68;10.98;;;14.40;96.70;;;;;;5031489;28;20013;-50
2023/10/10 06:26:24;;;;;;;15.23;11.65;;;14.50;96.70;;;;;;5036248;28;20078;-50
2023/10/10 06:28:53;;;;;;;15.82;10.77;;;14.40;96.70;;;;;;5038855;28;20388;-48
2023/10/10 06:31:19;;;;;;;13.35;9.98;;;14.50;96.70;;;;;;5031458;28;20030;-52
2023/10/10 06:33:49;;;;;;;12.48;9.73;;;14.50;96.70;;;;;;5002036;28;20115;-48
2023/10/10 06:41:40;;;;;;;15.85;10.43;;;14.60;96.60;;;;;;5036553;28;20064;-49
2023/10/10 06:44:13;;;;;;;11.60;9.60;;;14.70;96.60;;;;;;5029914;28;20060;-48
2023/10/10 06:46:40;;;;;;;10.15;8.27;;;14.70;96.60;;;;;;5012624;28;20120;-50
2023/10/10 06:49:12;;;;;;;12.75;9.00;;;14.70;96.60;;;;;;5031098;28;20100;-50
2023/10/10 06:51:40;;;;;;;11.02;9.38;;;14.70;96.60;;;;;;5027655;28;20029;-48
2023/10/10 06:54:19;;;;;;;12.43;9.00;;;14.70;96.50;;;;;;5030701;28;20033;-48
2023/10/10 06:56:54;;;;;;;13.85;9.05;;;14.70;96.50;;;;;;5030857;28;20455;-48
2023/10/10 06:59:27;;;;;;;11.68;9.63;;;14.70;96.40;;;;;;5030915;28;20109;-48
2023/10/10 07:01:59;;;;;;;10.85;8.40;;;14.80;96.40;;;;;;5028686;28;20029;-48
2023/10/10 07:04:28;;;;;;;12.07;8.68;;;14.70;96.40;;;;;;5029563;28;20029;-48
2023/10/10 07:07:00;;;;;;;11.65;9.60;;;14.80;96.40;;;;;;5031960;28;20033;-48
2023/10/10 07:09:36;;;;;;;12.88;8.80;;;14.80;96.30;;;;;;5031822;28;20024;-47
2023/10/10 07:12:14;;;;;;;10.55;8.88;;;14.80;96.40;;;;;;5020906;28;20526;-48
2023/10/10 07:14:53;;;;;;;11.32;8.30;;;14.80;96.30;;;;;;5003794;28;20088;-52
2023/10/10 07:17:27;;;;;;;11.75;9.43;;;14.90;96.40;;;;;;5012112;28;20105;-48
2023/10/10 07:22:41;;;;;;;13.85;9.35;;;14.90;96.30;;;;;;5024007;28;20034;-48
2023/10/10 07:25:59;;;;;;;13.38;9.18;;;15.00;96.20;;;;;;5009162;28;20447;-47
2023/10/10 07:28:04;;;;;;;12.32;8.73;;;15.00;96.30;;;;;;5002082;28;20050;-47
2023/10/10 07:30:43;;;;;;;9.63;7.10;;;15.10;96.20;;;;;;5011954;28;20111;-47
2023/10/10 07:33:29;;;;;;;9.63;8.45;;;15.20;96.20;;;;;;4993344;28;20050;-49
2023/10/10 07:35:57;;;;;;;10.35;8.00;;;15.30;96.20;;;;;;4996368;28;20363;-47
2023/10/10 07:38:27;;;;;;;10.35;8.50;;;15.40;96.00;;;;;;5029479;28;20038;-47
2023/10/10 07:40:56;;;;;;;12.15;9.05;;;15.40;96.00;;;;;;5011120;28;20490;-48
2023/10/10 07:43:27;;;;;;;12.35;7.90;;;15.40;95.90;;;;;;5015910;28;20083;-48
2023/10/10 07:45:56;;;;;;;9.27;8.38;;;15.40;95.60;;;;;;5016248;28;20156;-47
2023/10/10 07:51:07;;;;;;;9.95;8.13;;;15.40;95.60;;;;;;5015148;28;20087;-47
2023/10/10 07:53:42;;;;;;;13.85;9.02;;;15.40;95.50;;;;;;5015148;28;20112;-48
2023/10/10 07:56:10;;;;;;;13.10;8.82;;;15.40;95.50;;;;;;5029328;28;20040;-47
2023/10/10 07:58:43;;;;;;;10.73;8.32;;;15.40;95.50;;;;;;5030284;28;20054;-48
2023/10/10 08:01:16;;;;;;;14.23;10.00;;;15.60;95.60;;;;;;5005238;28;20076;-48
2023/10/10 08:03:44;;;;;;;10.48;7.97;;;15.70;95.50;;;;;;5008655;28;20068;-49
2023/10/10 08:06:18;;;;;;;10.23;8.02;;;15.90;95.40;;;;;;5015143;28;20068;-49
2023/10/10 08:08:48;;;;;;;12.77;8.50;;;16.20;95.40;;;;;;5021217;28;20367;-48
2023/10/10 08:11:36;;;;;;;10.50;8.93;;;16.40;95.10;;;;;;5029600;28;20104;-50
2023/10/10 08:14:07;;;;;;;11.60;9.10;;;16.40;94.60;;;;;;4995071;28;20109;-49
2023/10/10 08:16:59;;;;;;;9.68;6.93;;;16.60;94.70;;;;;;5011031;28;20060;-53
2023/10/10 08:19:33;;;;;;;7.88;6.13;;;16.90;94.40;;;;;;4979873;28;20337;-56
2023/10/10 08:21:59;;;;;;;8.07;6.82;;;16.90;93.70;;;;;;4989103;28;20037;-54
2023/10/10 08:24:26;;;;;;;8.40;7.30;;;16.90;92.90;;;;;;4988751;28;20034;-55
2023/10/10 08:26:53;;;;;;;13.13;7.25;;;16.80;92.70;;;;;;4994296;28;20030;-55
2023/10/10 08:29:27;;;;;;;10.30;7.32;;;16.90;92.90;;;;;;4995281;28;20120;-57
2023/10/10 08:31:55;;;;;;;8.55;6.82;;;16.90;92.60;;;;;;4994059;28;20030;-58
2023/10/10 08:34:24;;;;;;;8.25;6.28;;;16.90;92.30;;;;;;4995371;28;20026;-53
2023/10/10 08:36:56;;;;;;;;;;;17.00;92.50;;;;;;4995996;28;20161;-57
2023/10/10 08:41:53;;;;;;;10.85;6.47;;;17.00;92.00;;;;;;5006667;28;20038;-59
2023/10/10 08:44:20;;;;;;;8.68;6.07;;;16.90;91.80;;;;;;4994967;28;20118;-58
2023/10/10 08:46:52;;;;;;;10.57;6.15;;;17.00;92.30;;;;;;4992531;28;20050;-57
2023/10/10 08:49:22;;;;;;;6.88;6.13;;;17.10;91.90;;;;;;4980877;28;20034;-58
2023/10/10 08:51:52;;;;;;;17.90;7.35;;;17.30;92.30;;;;;;4995028;28;20026;-60
2023/10/10 08:54:21;;;;;;;9.13;5.93;;;17.40;91.60;;;;;;4988251;28;20042;-61
2023/10/10 08:57:38;;;;;;;9.63;5.35;;;17.40;91.00;;;;;;4975672;28;20030;-60
2023/10/10 08:59:42;;;;;;;8.70;5.70;;;17.50;91.40;;;;;;4989809;28;20093;-60
2023/10/10 09:02:33;;;;;;;11.55;7.20;;;17.90;91.20;;;;;;4998821;28;20548;-61
2023/10/10 09:05:06;;;;;;;11.20;5.70;;;18.00;89.80;;;;;;4984685;28;20034;-62
2023/10/10 09:07:39;;;;;;;8.70;5.50;;;18.10;88.90;;;;;;5006243;28;20700;-59
2023/10/10 09:10:16;;;;;;;7.35;5.03;;;18.10;88.50;;;;;;4986967;28;20077;-60
2023/10/10 09:13:01;;;;;;;9.77;5.13;;;18.10;88.10;;;;;;5016066;28;20091;-59
2023/10/10 09:15:30;;;;;;;6.13;4.00;;;18.10;88.20;;;;;;5033979;28;20076;-59
2023/10/10 09:18:14;;;;;;;8.45;4.90;;;18.00;88.40;;;;;;5014080;28;20026;-57
2023/10/10 09:20:45;;;;;;;7.72;6.13;;;18.00;88.60;;;;;;5032613;28;20038;-55
2023/10/10 09:23:42;;;;;;;13.15;8.65;;;17.90;88.40;;;;;;5022636;28;20037;-54
2023/10/10 09:29:15;;;;;;;9.85;7.63;;;17.80;88.20;;;;;;5031112;28;20125;-55
2023/10/10 09:31:45;;;;;;;10.27;9.02;;;17.80;88.60;;;;;;5024347;28;20056;-57
2023/10/10 09:34:18;;;;;;;10.40;8.52;;;17.90;88.80;;;;;;5031296;28;20057;-55
2023/10/10 09:36:50;;;;;;;12.27;9.10;;;17.90;88.90;;;;;;5033122;28;20128;-53
2023/10/10 09:39:36;;;;;;;12.60;11.27;;;18.10;89.60;;;;;;5025983;28;20344;-53
2023/10/10 09:48:06;;;;;;;16.77;12.35;;;18.90;88.00;;;;;;4989262;28;20058;-52
2023/10/10 09:50:51;;;;;;;15.23;12.15;;;19.10;87.70;;;;;;5017692;28;20045;-51
2023/10/10 09:53:21;;;;;;;12.65;11.45;;;19.30;86.40;;;;;;5030405;28;20037;-51
2023/10/10 09:55:53;;;;;;;14.15;10.25;;;19.20;86.20;;;;;;5023716;28;20100;-50
2023/10/10 09:58:27;;;;;;;13.90;11.30;;;19.20;85.90;;;;;;5013792;28;20109;-51
2023/10/10 10:01:12;;;;;;;12.15;10.75;;;19.10;85.20;;;;;;5028532;28;20119;-53
2023/10/10 10:03:49;;;;;;;12.77;11.00;;;19.00;86.20;;;;;;5032383;28;20029;-51
2023/10/10 10:06:37;;;;;;;13.02;11.15;;;19.10;86.90;;;;;;5032668;28;20029;-54
2023/10/10 10:09:21;;;;;;;11.30;9.75;;;19.30;87.00;;;;;;5027653;28;20052;-49
2023/10/10 10:12:23;;;;;;;12.18;10.52;;;19.20;85.60;;;;;;5030610;28;20116;-49
2023/10/10 10:15:05;;;;;;;11.57;9.52;;;19.10;86.00;;;;;;5030949;28;20029;-49
2023/10/10 10:17:48;;;;;;;13.90;9.90;;;19.10;86.00;;;;;;5012912;28;20045;-49
2023/10/10 10:21:12;;;;;;;13.40;10.52;;;19.10;86.30;;;;;;5026982;28;20026;-51
2023/10/10 10:23:33;;;;;;;11.70;10.32;;;19.10;85.80;;;;;;5026473;28;20057;-50
2023/10/10 10:26:10;;;;;;;11.85;9.98;;;19.00;86.20;;;;;;5030579;28;20041;-50
2023/10/10 10:28:41;;;;;;;12.15;9.95;;;19.10;86.20;;;;;;5029974;28;20474;-50
2023/10/10 10:31:28;;;;;;;11.90;9.85;;;19.10;86.30;;;;;;5030142;28;20048;-48
2023/10/10 10:34:23;;;;;;;11.00;9.40;;;19.10;85.70;;;;;;5019847;28;20060;-49
2023/10/10 10:37:19;;;;;;;12.00;9.95;;;19.00;86.10;;;;;;5014994;28;20071;-49
2023/10/10 10:42:40;;;;;;;13.48;10.48;;;19.00;85.70;;;;;;5025612;28;20045;-48
2023/10/10 10:45:41;;;;;;;13.02;11.68;;;19.00;85.90;;;;;;5031842;28;20052;-50
2023/10/10 10:51:32;;;;;;;14.13;10.88;;;18.90;86.80;;;;;;5012915;28;20033;-49
2023/10/10 10:54:35;;;;;;;13.05;11.75;;;18.90;86.80;;;;;;5013019;28;20029;-49
2023/10/10 10:57:06;;;;;;;;;;;18.90;86.20;;;;;;5027337;28;20481;-48
2023/10/10 10:59:44;;;;;;;18.23;11.95;;;18.70;86.40;;;;;;5032311;28;19913;-51
2023/10/10 11:02:30;;;;;;;12.82;11.10;;;18.50;87.00;;;;;;5017007;28;20462;-49
2023/10/10 11:04:57;;;;;;;14.77;12.48;;;18.40;87.90;;;;;;5000547;28;20029;-50
2023/10/10 11:07:32;;;;;;;14.13;12.60;;;18.50;88.20;;;;;;5014400;28;20030;-48
2023/10/10 11:10:11;;;;;;;15.48;13.70;;;18.50;88.20;;;;;;5013705;28;20041;-49
2023/10/10 11:12:44;;;;;;;16.20;13.63;;;18.40;88.30;;;;;;5010589;28;20046;-51
2023/10/10 11:15:11;;;;;;;16.75;14.98;;;18.40;88.70;;;;;;5011891;28;20037;-53
2023/10/10 11:17:39;;;;;;;17.05;15.35;;;18.30;88.80;;;;;;5027810;28;20026;-49
2023/10/10 11:20:26;;;;;;;16.08;14.40;;;18.30;89.00;;;;;;5005293;28;20022;-50
2023/10/10 11:23:10;;;;;;;17.88;15.10;;;18.30;89.30;;;;;;5025440;28;20614;-50
2023/10/10 11:25:45;;;;;;;16.90;15.13;;;18.40;89.10;;;;;;5025056;28;20104;-48
2023/10/10 11:28:36;;;;;;;19.50;17.10;;;18.40;89.20;;;;;;5022245;28;20092;-48
2023/10/10 11:31:07;;;;;;;20.20;17.38;;;18.40;88.90;;;;;;5007543;28;20037;-51
2023/10/10 11:36:51;;;;;;;19.75;16.95;;;18.40;89.20;;;;;;5008455;28;20042;-49
2023/10/10 11:39:31;;;;;;;23.15;18.40;;;18.60;89.20;;;;;;5012092;28;20073;-50
2023/10/10 11:42:00;;;;;;;26.48;19.75;;;18.60;89.10;;;;;;5008841;28;20042;-48
2023/10/10 11:44:33;;;;;;;23.90;19.85;;;18.70;88.80;;;;;;5001343;28;20044;-51
2023/10/10 11:47:02;;;;;;;25.10;21.13;;;18.80;88.90;;;;;;5010387;28;20026;-50
2023/10/10 11:49:32;;;;;;;26.48;21.33;;;18.80;88.80;;;;;;5009121;28;20038;-50
2023/10/10 11:51:59;;;;;;;32.60;24.77;;;18.90;88.60;;;;;;5012010;28;20083;-50
2023/10/10 11:54:29;;;;;;;27.70;24.58;;;18.80;88.10;;;;;;5010637;28;20087;-49
2023/10/10 11:56:56;;;;;;;31.95;26.50;;;18.70;88.10;;;;;;5010612;28;20109;-49
2023/10/10 11:59:24;;;;;;;31.90;27.30;;;18.70;87.90;;;;;;5012284;28;20109;-53
2023/10/10 12:01:51;;;;;;;37.60;26.88;;;18.70;88.10;;;;;;5011703;28;20029;-53
2023/10/10 12:04:44;;;;;;;35.10;26.65;;;18.70;88.40;;;;;;5020339;28;20355;-50
2023/10/10 12:07:08;;;;;;;33.70;26.63;;;18.80;88.30;;;;;;5009940;28;20049;-48
2023/10/10 12:09:34;;;;;;;34.08;26.20;;;18.80;88.20;;;;;;5012062;28;20089;-49
2023/10/10 12:12:03;;;;;;;30.02;25.20;;;18.80;88.50;;;;;;5016849;28;20054;-49
2023/10/10 12:14:31;;;;;;;29.27;24.75;;;18.90;88.50;;;;;;5023395;28;20045;-49
2023/10/10 12:17:00;;;;;;;35.00;28.23;;;18.80;88.20;;;;;;5012565;28;20033;-50
2023/10/10 12:19:35;;;;;;;33.30;26.73;;;18.80;88.50;;;;;;5011044;28;20037;-51
2023/10/10 12:22:08;;;;;;;30.27;23.75;;;18.70;88.70;;;;;;4996160;28;20049;-50
2023/10/10 12:24:39;;;;;;;35.95;27.45;;;18.60;89.10;;;;;;5022495;28;20026;-49
2023/10/10 12:27:09;;;;;;;33.47;26.15;;;18.60;89.40;;;;;;5032450;28;20038;-49
2023/10/10 12:29:39;;;;;;;;;;;18.50;89.70;;;;;;5045188;28;20113;-49
2023/10/10 12:32:15;;;;;;;33.47;25.42;;;18.50;90.10;;;;;;5034600;28;19931;-50
2023/10/10 12:34:45;;;;;;;34.33;27.83;;;18.50;90.30;;;;;;5026517;28;20466;-50
2023/10/10 12:37:18;;;;;;;37.17;29.20;;;18.50;90.60;;;;;;5013757;28;20116;-47
2023/10/10 12:39:46;;;;;;;41.40;32.13;;;18.60;90.80;;;;;;5013795;28;20061;-47
2023/10/10 12:42:14;;;;;;;32.10;28.65;;;18.60;90.90;;;;;;5024109;28;20117;-49
2023/10/10 12:44:39;;;;;;;36.22;26.75;;;18.60;90.90;;;;;;5026233;28;20435;-49
2023/10/10 12:47:10;;;;;;;36.22;29.55;;;18.70;91.00;;;;;;5030496;28;20037;-47
2023/10/10 12:49:44;;;;;;;39.63;30.58;;;18.80;91.20;;;;;;5031453;28;20022;-49
2023/10/10 12:52:17;;;;;;;35.67;31.80;;;18.80;90.90;;;;;;5032698;28;20025;-47
2023/10/10 12:54:46;;;;;;;36.45;31.42;;;18.90;90.70;;;;;;5032384;28;20573;-50
2023/10/10 12:57:15;;;;;;;39.22;34.13;;;18.90;90.50;;;;;;5032375;28;20362;-49
2023/10/10 12:59:48;;;;;;;36.83;29.73;;;18.90;90.50;;;;;;5031447;28;20040;-47
2023/10/10 13:02:31;;;;;;;35.78;31.75;;;18.90;90.40;;;;;;5031896;28;20072;-48
2023/10/10 13:04:59;;;;;;;37.40;32.65;;;18.90;90.30;;;;;;5022533;28;20050;-50
2023/10/10 13:07:27;;;;;;;37.70;31.83;;;18.90;90.10;;;;;;5033098;28;20029;-48
2023/10/10 13:09:56;;;;;;;39.83;31.80;;;18.90;90.10;;;;;;5030407;28;20029;-49
2023/10/10 13:12:32;;;;;;;38.92;30.77;;;18.90;90.00;;;;;;5029957;28;20132;-48
2023/10/10 13:18:11;;;;;;;39.10;32.88;;;19.00;90.00;;;;;;5028099;28;20040;-48
2023/10/10 13:20:39;;;;;;;37.00;32.28;;;19.10;90.10;;;;;;5029495;28;20412;-48
2023/10/10 13:23:06;;;;;;;38.38;32.80;;;19.10;89.60;;;;;;5032605;28;20430;-48
2023/10/10 13:25:37;;;;;;;33.45;29.42;;;19.20;88.90;;;;;;5031293;28;20036;-51
2023/10/10 13:28:17;;;;;;;41.30;33.42;;;19.20;88.50;;;;;;5028002;28;20041;-48
2023/10/10 13:30:54;;;;;;;39.65;31.10;;;19.20;88.20;;;;;;5029642;28;20045;-49
2023/10/10 13:33:21;;;;;;;37.60;31.90;;;19.20;88.50;;;;;;5026886;28;20022;-48
2023/10/10 13:35:48;;;;;;;35.55;30.88;;;19.10;88.30;;;;;;5032865;28;20511;-52
2023/10/10 13:38:16;;;;;;;38.13;32.33;;;19.00;88.20;;;;;;5027479;28;20053;-48
2023/10/10 13:40:46;;;;;;;39.55;31.25;;;18.90;88.40;;;;;;5033685;28;20039;-49
2023/10/10 13:43:19;;;;;;;37.55;29.63;;;18.90;88.60;;;;;;5026000;28;20052;-49
2023/10/10 13:45:52;;;;;;;38.22;33.03;;;18.80;88.70;;;;;;5032498;28;20041;-51
2023/10/10 13:48:22;;;;;;;42.58;32.67;;;18.80;88.80;;;;;;5031797;28;20352;-52
2023/10/10 13:50:51;;;;;;;49.15;34.55;;;18.80;88.80;;;;;;5031185;28;20033;-50
2023/10/10 13:53:20;;;;;;;41.40;33.45;;;18.80;88.80;;;;;;5030503;28;20038;-49
2023/10/10 13:55:47;;;;;;;40.87;33.90;;;18.80;88.80;;;;;;5034442;28;20036;-48
2023/10/10 13:58:16;;;;;;;42.83;33.08;;;18.70;88.70;;;;;;5033720;28;20021;-51
2023/10/10 14:01:13;;;;;;;45.90;36.78;;;18.70;88.90;;;;;;5020505;28;20038;-48
2023/10/10 14:03:47;;;;;;;43.72;33.25;;;18.70;88.90;;;;;;5022707;28;20502;-48
2023/10/10 14:06:26;;;;;;;39.55;33.65;;;18.70;89.10;;;;;;5033513;28;20404;-50
2023/10/10 14:09:03;;;;;;;37.35;31.38;;;18.70;89.00;;;;;;5016101;28;20061;-52
2023/10/10 14:11:32;;;;;;;38.95;32.95;;;18.80;89.10;;;;;;5028575;28;20067;-52
2023/10/10 14:14:00;;;;;;;38.03;30.85;;;18.70;89.00;;;;;;5033712;28;20050;-49
2023/10/10 14:16:29;;;;;;;40.15;34.20;;;18.80;88.90;;;;;;5033918;28;20493;-48
2023/10/10 14:19:16;;;;;;;38.05;33.75;;;18.70;89.00;;;;;;5033551;28;20060;-49
2023/10/10 14:21:43;;;;;;;37.55;32.70;;;18.70;88.90;;;;;;5015687;28;20056;-49
2023/10/10 14:24:13;;;;;;;45.25;33.88;;;18.70;89.00;;;;;;5014626;28;20076;-52
2023/10/10 14:26:43;;;;;;;37.72;31.27;;;18.70;89.00;;;;;;5014096;28;20110;-50
2023/10/10 14:29:13;;;;;;;39.38;32.08;;;18.70;88.90;;;;;;5033316;28;20152;-51
2023/10/10 14:31:44;;;;;;;37.75;31.58;;;18.70;88.90;;;;;;5015043;28;20050;-53
2023/10/10 14:34:25;;;;;;;35.70;31.65;;;18.80;89.00;;;;;;5013415;28;20080;-50
2023/10/10 14:36:54;;;;;;;40.10;34.20;;;18.80;88.90;;;;;;5013789;28;20032;-48
2023/10/10 14:39:44;;;;;;;37.42;32.03;;;18.80;88.80;;;;;;5024404;28;20080;-50
2023/10/10 14:42:19;;;;;;;41.10;33.10;;;18.80;88.80;;;;;;5024895;28;20029;-48
2023/10/10 14:44:46;;;;;;;41.53;34.67;;;18.80;88.90;;;;;;5033213;28;20071;-49
2023/10/10 14:47:20;;;;;;;47.00;35.35;;;18.70;89.20;;;;;;5032376;28;20025;-49
2023/10/10 14:49:55;;;;;;;40.33;33.72;;;18.70;89.40;;;;;;5024886;28;20029;-48
2023/10/10 14:52:21;;;;;;;38.45;32.92;;;18.60;89.70;;;;;;5033146;28;20075;-48
2023/10/10 14:54:52;;;;;;;40.60;34.95;;;18.60;89.70;;;;;;5031859;28;20033;-49
2023/10/10 14:57:29;;;;;;;43.85;35.03;;;18.60;89.70;;;;;;5032829;28;20044;-48
2023/10/10 15:00:03;;;;;;;45.90;34.45;;;18.50;89.90;;;;;;5016014;28;20056;-48
2023/10/10 15:02:30;;;;;;;42.90;35.97;;;18.50;90.00;;;;;;5013743;28;20029;-49
2023/10/10 15:05:08;;;;;;;45.75;35.60;;;18.40;90.10;;;;;;5012996;28;20050;-49
2023/10/10 15:07:41;;;;;;;42.17;35.45;;;18.40;90.20;;;;;;5026917;28;20461;-51
2023/10/10 15:10:08;;;;;;;41.85;34.88;;;18.40;90.40;;;;;;5033084;28;20030;-48
2023/10/10 15:12:36;;;;;;;45.55;35.97;;;18.40;90.60;;;;;;5022798;28;20061;-48
2023/10/10 15:15:05;;;;;;;42.70;34.78;;;18.40;90.70;;;;;;5012817;28;20034;-48
2023/10/10 15:17:33;;;;;;;44.28;36.40;;;18.30;90.80;;;;;;5012584;28;20030;-49
2023/10/10 15:20:00;;;;;;;41.45;36.72;;;18.30;90.90;;;;;;5012757;28;20015;-47
2023/10/10 15:22:27;;;;;;;46.03;37.92;;;18.30;91.20;;;;;;5012486;28;20038;-47
2023/10/10 15:24:55;;;;;;;46.50;38.28;;;18.30;91.30;;;;;;5012820;28;20034;-47
2023/10/10 15:27:24;;;;;;;45.45;37.35;;;18.20;91.40;;;;;;5012864;28;20092;-47
2023/10/10 15:29:52;;;;;;;42.35;35.28;;;18.20;91.50;;;;;;5006461;28;20034;-47
2023/10/10 15:32:20;;;;;;;42.83;34.40;;;18.20;91.60;;;;;;5010911;28;20026;-47
2023/10/10 15:34:48;;;;;;;43.58;35.58;;;18.20;91.70;;;;;;4993165;28;20026;-49
2023/10/10 15:37:19;;;;;;;43.75;37.20;;;18.20;91.70;;;;;;4993342;28;20449;-47